createdAt,value
2018-06-01T00:01:16.177Z,7.33
2018-06-01T00:03:43.626Z,8.13
2018-06-01T00:06:11.102Z,10.70
2018-06-01T00:08:39.362Z,10.17
2018-06-01T00:11:06.860Z,6.17
2018-06-01T00:13:34.356Z,7.10
2018-06-01T00:16:01.822Z,11.03
2018-06-01T00:18:29.289Z,7.73
2018-06-01T00:20:56.741Z,12.10
2018-06-01T00:23:24.224Z,6.03
2018-06-01T00:25:52.553Z,8.30
2018-06-01T00:28:20.025Z,7.40
2018-06-01T00:30:47.501Z,6.83
2018-06-01T00:33:14.984Z,8.33
2018-06-01T00:35:42.424Z,7.13
2018-06-01T00:38:09.940Z,8.73
2018-06-01T00:40:37.430Z,7.80
2018-06-01T00:43:04.917Z,6.23
2018-06-01T00:45:32.386Z,8.50
2018-06-01T00:47:59.874Z,7.50
2018-06-01T00:50:28.073Z,8.97
2018-06-01T00:52:55.565Z,8.07
2018-06-01T00:55:24.732Z,8.73
2018-06-01T00:57:52.198Z,9.87
2018-06-01T01:00:19.672Z,8.47
2018-06-01T01:02:47.167Z,10.00
2018-06-01T01:05:14.627Z,9.70
2018-06-01T01:07:42.836Z,8.80
2018-06-01T01:10:10.314Z,8.70
2018-06-01T01:12:37.769Z,10.80
2018-06-01T01:15:05.243Z,10.10
2018-06-01T01:17:33.506Z,6.70
2018-06-01T01:20:00.997Z,10.80
2018-06-01T01:22:28.436Z,15.50
2018-06-01T01:24:55.944Z,11.57
2018-06-01T01:27:23.405Z,10.40
2018-06-01T01:29:50.890Z,12.00
2018-06-01T01:32:18.352Z,13.33
2018-06-01T01:34:45.797Z,27.60
2018-06-01T01:37:13.279Z,11.40
2018-06-01T01:39:41.508Z,11.53
2018-06-01T01:42:09.005Z,11.53
2018-06-01T01:44:37.252Z,11.40
2018-06-01T01:47:04.714Z,12.63
2018-06-01T01:49:32.205Z,8.77
2018-06-01T01:52:00.439Z,9.67
2018-06-01T01:54:27.897Z,8.83
2018-06-01T01:56:55.365Z,8.20
2018-06-01T01:59:22.807Z,10.70
2018-06-01T02:01:50.310Z,10.83
2018-06-01T02:04:18.540Z,7.57
2018-06-01T02:06:46.033Z,9.90
2018-06-01T02:09:13.538Z,8.00
2018-06-01T02:11:41.025Z,7.87
2018-06-01T02:14:08.489Z,7.10
2018-06-01T02:16:35.984Z,9.07
2018-06-01T02:19:03.466Z,9.93
2018-06-01T02:21:31.724Z,8.23
2018-06-01T02:23:59.220Z,6.13
2018-06-01T02:26:26.725Z,13.53
2018-06-01T02:28:54.981Z,8.30
2018-06-01T02:31:22.424Z,9.30
2018-06-01T02:33:49.935Z,9.20
2018-06-01T02:36:17.435Z,6.97
2018-06-01T02:38:44.881Z,12.80
2018-06-01T02:41:12.361Z,7.97
2018-06-01T02:43:39.794Z,8.17
2018-06-01T02:46:07.306Z,8.80
2018-06-01T02:48:34.801Z,9.83
2018-06-01T02:51:02.269Z,8.90
2018-06-01T02:53:29.757Z,7.30
2018-06-01T02:55:57.236Z,6.73
2018-06-01T02:58:25.468Z,6.50
2018-06-01T03:00:52.935Z,12.47
2018-06-01T03:03:20.381Z,11.17
2018-06-01T03:05:47.853Z,9.30
2018-06-01T03:08:15.332Z,8.47
2018-06-01T03:10:42.849Z,11.03
2018-06-01T03:13:10.349Z,11.87
2018-06-01T03:15:38.630Z,9.40
2018-06-01T03:18:06.152Z,12.27
2018-06-01T03:20:33.616Z,20.50
2018-06-01T03:23:01.097Z,14.83
2018-06-01T03:25:28.570Z,15.10
2018-06-01T03:27:56.913Z,19.93
2018-06-01T03:30:24.385Z,15.20
2018-06-01T03:32:51.863Z,17.90
2018-06-01T03:35:20.131Z,19.77
2018-06-01T03:37:48.350Z,15.80
2018-06-01T03:40:15.852Z,14.60
2018-06-01T03:42:43.330Z,13.17
2018-06-01T03:45:11.577Z,17.27
2018-06-01T03:47:39.045Z,16.90
2018-06-01T03:50:06.508Z,16.07
2018-06-01T03:52:34.769Z,15.60
2018-06-01T03:55:02.246Z,23.07
2018-06-01T03:57:30.493Z,15.73
2018-06-01T03:59:57.953Z,17.63
2018-06-01T04:02:25.439Z,14.40
2018-06-01T04:04:53.691Z,17.53
2018-06-01T04:07:21.142Z,17.00
2018-06-01T04:09:48.635Z,15.77
2018-06-01T04:12:16.896Z,20.83
2018-06-01T04:14:44.407Z,16.50
2018-06-01T04:17:11.864Z,16.57
2018-06-01T04:19:39.350Z,14.03
2018-06-01T04:22:06.846Z,20.27
2018-06-01T04:24:35.088Z,15.63
2018-06-01T04:27:02.614Z,11.80
2018-06-01T04:29:30.881Z,20.90
2018-06-01T04:31:58.391Z,16.40
2018-06-01T04:34:25.872Z,14.27
2018-06-01T04:36:54.133Z,14.50
2018-06-01T04:39:22.357Z,19.40
2018-06-01T04:41:49.831Z,15.43
2018-06-01T04:44:17.309Z,14.57
2018-06-01T04:46:44.795Z,18.87
2018-06-01T04:49:13.074Z,13.60
2018-06-01T04:51:40.490Z,13.30
2018-06-01T04:54:07.954Z,13.50
2018-06-01T04:56:35.440Z,11.77
2018-06-01T04:59:03.680Z,14.70
2018-06-01T05:01:31.135Z,21.23
2018-06-01T05:03:58.649Z,11.57
2018-06-01T05:06:26.107Z,19.53
2018-06-01T05:08:53.595Z,12.87
2018-06-01T05:11:21.057Z,14.20
2018-06-01T05:13:48.544Z,10.93
2018-06-01T05:16:16.026Z,11.10
2018-06-01T05:18:43.537Z,10.00
2018-06-01T05:21:10.980Z,13.70
2018-06-01T05:23:38.485Z,9.00
2018-06-01T05:26:05.949Z,10.90
2018-06-01T05:28:34.176Z,19.73
2018-06-01T05:31:01.665Z,13.60
2018-06-01T05:33:29.129Z,9.50
2018-06-01T05:35:56.609Z,11.40
2018-06-01T05:38:24.830Z,11.80
2018-06-01T05:40:52.345Z,13.43
2018-06-01T05:43:19.801Z,14.13
2018-06-01T05:45:47.284Z,11.50
2018-06-01T05:48:14.762Z,13.00
2018-06-01T05:50:42.289Z,10.70
2018-06-01T05:53:09.769Z,14.07
2018-06-01T05:55:37.228Z,10.40
2018-06-01T05:58:04.700Z,13.70
2018-06-01T06:00:32.200Z,14.03
2018-06-01T06:03:00.413Z,10.93
2018-06-01T06:05:27.915Z,15.10
2018-06-01T06:07:55.415Z,9.20
2018-06-01T06:10:22.853Z,10.93
2018-06-01T06:12:51.098Z,8.87
2018-06-01T06:15:18.564Z,14.33
2018-06-01T06:17:46.081Z,10.67
2018-06-01T06:20:13.547Z,20.47
2018-06-01T06:22:40.993Z,9.13
2018-06-01T06:25:08.451Z,10.83
2018-06-01T06:27:35.907Z,7.30
2018-06-01T06:30:03.404Z,12.00
2018-06-01T06:32:30.861Z,8.63
2018-06-01T06:34:58.332Z,12.43
2018-06-01T06:37:26.565Z,10.00
2018-06-01T06:39:54.041Z,12.73
2018-06-01T06:42:21.488Z,17.43
2018-06-01T06:44:48.982Z,13.37
2018-06-01T06:47:16.432Z,9.77
2018-06-01T06:49:43.893Z,8.07
2018-06-01T06:52:12.107Z,12.43
2018-06-01T06:54:39.591Z,8.83
2018-06-01T06:57:07.034Z,11.50
2018-06-01T06:59:34.526Z,7.63
2018-06-01T07:02:01.995Z,7.03
2018-06-01T07:04:29.464Z,7.60
2018-06-01T07:06:56.937Z,12.53
2018-06-01T07:09:24.390Z,7.50
2018-06-01T07:11:51.876Z,7.13
2018-06-01T07:14:20.109Z,6.97
2018-06-01T07:16:48.353Z,10.33
2018-06-01T07:19:15.827Z,12.23
2018-06-01T07:21:43.277Z,10.60
2018-06-01T07:24:10.796Z,14.33
2018-06-01T07:26:38.351Z,9.97
2018-06-01T07:29:05.881Z,9.93
2018-06-01T07:31:33.310Z,14.73
2018-06-01T07:34:00.796Z,12.60
2018-06-01T07:36:29.016Z,12.10
2018-06-01T07:38:56.511Z,8.80
2018-06-01T07:41:23.958Z,8.67
2018-06-01T07:43:51.447Z,11.10
2018-06-01T07:46:19.686Z,11.50
2018-06-01T07:48:47.311Z,8.53
2018-06-01T07:51:14.770Z,12.00
2018-06-01T07:53:42.265Z,10.70
2018-06-01T07:56:09.750Z,9.37
2018-06-01T07:58:37.989Z,10.17
2018-06-01T08:01:05.456Z,8.57
2018-06-01T08:03:32.943Z,7.97
2018-06-01T08:06:00.393Z,7.90
2018-06-01T08:08:28.628Z,8.90
2018-06-01T08:10:56.068Z,9.33
2018-06-01T08:13:23.554Z,13.03
2018-06-01T08:15:51.010Z,10.37
2018-06-01T08:18:18.493Z,8.10
2018-06-01T08:20:46.700Z,9.63
2018-06-01T08:23:14.202Z,7.77
2018-06-01T08:25:41.661Z,8.20
2018-06-01T08:28:09.187Z,11.97
2018-06-01T08:30:36.650Z,7.60
2018-06-01T08:33:04.106Z,16.30
2018-06-01T08:35:31.573Z,8.10
2018-06-01T08:37:59.037Z,8.00
2018-06-01T08:40:26.525Z,7.33
2018-06-01T08:42:54.013Z,14.50
2018-06-01T08:45:21.464Z,6.37
2018-06-01T08:47:48.950Z,6.43
2018-06-01T08:50:16.389Z,6.67
2018-06-01T08:52:43.881Z,7.77
2018-06-01T08:55:11.433Z,10.43
2018-06-01T08:57:38.896Z,7.83
2018-06-01T09:00:06.381Z,6.90
2018-06-01T09:02:33.837Z,6.30
2018-06-01T09:05:01.298Z,6.43
2018-06-01T09:07:28.766Z,5.93
2018-06-01T09:09:57.028Z,8.73
2018-06-01T09:12:24.486Z,8.13
2018-06-01T09:14:51.950Z,5.50
2018-06-01T09:17:19.432Z,6.33
2018-06-01T09:19:46.885Z,6.10
2018-06-01T09:22:15.150Z,7.17
2018-06-01T09:24:42.600Z,6.40
2018-06-01T09:27:10.067Z,7.67
2018-06-01T09:29:38.327Z,8.63
2018-06-01T09:32:05.788Z,8.93
2018-06-01T09:34:33.257Z,7.93
2018-06-01T09:37:01.502Z,11.10
2018-06-01T09:39:28.977Z,5.33
2018-06-01T09:41:56.439Z,4.90
2018-06-01T09:44:23.901Z,5.33
2018-06-01T09:46:52.122Z,5.23
2018-06-01T09:49:19.583Z,8.63
2018-06-01T09:51:47.033Z,5.70
2018-06-01T09:54:14.505Z,5.63
2018-06-01T09:56:41.981Z,4.90
2018-06-01T09:59:09.475Z,5.97
2018-06-01T10:01:37.678Z,5.07
2018-06-01T10:04:05.112Z,4.33
2018-06-01T10:06:32.608Z,5.80
2018-06-01T10:09:00.064Z,4.20
2018-06-01T10:11:27.554Z,10.43
2018-06-01T10:13:55.040Z,6.70
2018-06-01T10:16:23.304Z,8.80
2018-06-01T10:18:51.522Z,5.63
2018-06-01T10:21:19.010Z,5.67
2018-06-01T10:23:46.467Z,5.20
2018-06-01T10:26:13.945Z,4.87
2018-06-01T10:28:41.387Z,4.40
2018-06-01T10:31:08.867Z,3.50
2018-06-01T10:33:37.118Z,3.40
2018-06-01T10:36:04.633Z,4.60
2018-06-01T10:38:32.087Z,5.40
2018-06-01T10:40:59.573Z,4.13
2018-06-01T10:43:27.039Z,4.00
2018-06-01T10:45:54.489Z,4.20
2018-06-01T10:48:21.989Z,4.50
2018-06-01T10:50:49.429Z,7.30
2018-06-01T10:53:16.944Z,3.90
2018-06-01T10:55:44.433Z,5.23
2018-06-01T10:58:11.953Z,3.67
2018-06-01T11:00:39.354Z,3.23
2018-06-01T11:03:06.814Z,4.93
2018-06-01T11:05:34.286Z,3.67
2018-06-01T11:08:02.554Z,3.73
2018-06-01T11:10:30.017Z,3.27
2018-06-01T11:12:57.487Z,3.03
2018-06-01T11:15:25.752Z,3.50
2018-06-01T11:17:54.029Z,3.10
2018-06-01T11:20:22.269Z,2.80
2018-06-01T11:22:49.730Z,3.00
2018-06-01T11:25:17.222Z,2.70
2018-06-01T11:27:44.685Z,4.10
2018-06-01T11:30:12.924Z,2.57
2018-06-01T11:32:40.376Z,3.33
2018-06-01T11:35:07.841Z,3.57
2018-06-01T11:37:35.323Z,3.50
2018-06-01T11:40:02.784Z,2.27
2018-06-01T11:42:30.241Z,2.50
2018-06-01T11:44:58.460Z,2.37
2018-06-01T11:47:25.945Z,4.40
2018-06-01T11:49:53.413Z,2.50
2018-06-01T11:52:20.889Z,2.37
2018-06-01T11:54:49.107Z,2.60
2018-06-01T11:57:16.585Z,2.50
2018-06-01T11:59:44.037Z,2.70
2018-06-01T12:02:11.490Z,2.73
2018-06-01T12:04:38.982Z,2.70
2018-06-01T12:07:06.436Z,2.30
2018-06-01T12:09:33.921Z,14.07
2018-06-01T12:12:02.152Z,2.90
2018-06-01T12:14:29.629Z,2.63
2018-06-01T12:16:57.085Z,3.17
2018-06-01T12:19:24.547Z,2.87
2018-06-01T12:21:52.009Z,2.30
2018-06-01T12:24:20.241Z,2.37
2018-06-01T12:26:47.729Z,2.63
2018-06-01T12:29:15.222Z,3.30
2018-06-01T12:31:42.669Z,4.27
2018-06-01T12:34:10.893Z,4.40
2018-06-01T12:36:38.364Z,2.63
2018-06-01T12:39:05.866Z,2.30
2018-06-01T12:41:34.093Z,2.80
2018-06-01T12:44:01.558Z,2.83
2018-06-01T12:46:29.013Z,3.87
2018-06-01T12:48:56.501Z,3.80
2018-06-01T12:51:23.968Z,2.80
2018-06-01T12:53:52.184Z,2.57
2018-06-01T12:56:19.668Z,2.30
2018-06-01T12:58:47.116Z,2.60
2018-06-01T13:01:14.609Z,2.20
2018-06-01T13:03:42.849Z,2.87
2018-06-01T13:06:10.304Z,6.50
2018-06-01T13:08:37.772Z,3.20
2018-06-01T13:11:05.268Z,3.93
2018-06-01T13:13:33.495Z,2.40
2018-06-01T13:16:00.961Z,2.60
2018-06-01T13:18:28.433Z,2.80
2018-06-01T13:20:55.892Z,3.40
2018-06-01T13:23:23.370Z,2.80
2018-06-01T13:25:51.604Z,2.50
2018-06-01T13:28:19.053Z,2.63
2018-06-01T13:30:46.542Z,2.40
2018-06-01T13:33:14.021Z,2.70
2018-06-01T13:35:42.267Z,2.60
2018-06-01T13:38:09.743Z,2.70
2018-06-01T13:40:37.984Z,2.63
2018-06-01T13:43:05.465Z,2.60
2018-06-01T13:45:32.912Z,2.90
2018-06-01T13:48:00.389Z,4.60
2018-06-01T13:50:27.866Z,3.63
2018-06-01T13:52:56.084Z,2.50
2018-06-01T13:55:23.559Z,2.43
2018-06-01T13:57:50.997Z,2.90
2018-06-01T14:00:18.470Z,2.63
2018-06-01T14:02:45.950Z,2.77
2018-06-01T14:05:13.453Z,2.40
2018-06-01T14:07:40.959Z,2.33
2018-06-01T14:10:08.436Z,2.47
2018-06-01T14:12:36.712Z,2.90
2018-06-01T14:15:04.981Z,3.07
2018-06-01T14:17:33.196Z,2.47
2018-06-01T14:20:00.655Z,3.10
2018-06-01T14:22:28.144Z,2.87
2018-06-01T14:24:55.593Z,2.70
2018-06-01T14:27:23.048Z,3.57
2018-06-01T14:29:50.509Z,5.80
2018-06-01T14:32:17.981Z,3.37
2018-06-01T14:34:45.438Z,4.00
2018-06-01T14:37:12.893Z,5.03
2018-06-01T14:39:40.376Z,3.70
2018-06-01T14:42:08.587Z,4.47
2018-06-01T14:44:36.077Z,6.40
2018-06-01T14:47:03.617Z,3.80
2018-06-01T14:49:31.017Z,4.20
2018-06-01T14:51:59.090Z,4.47
2018-06-01T14:54:26.578Z,4.30
2018-06-01T14:56:54.021Z,4.80
2018-06-01T14:59:22.253Z,5.30
2018-06-01T15:01:49.813Z,4.87
2018-06-01T15:04:17.222Z,4.00
2018-06-01T15:06:44.680Z,19.87
2018-06-01T15:09:12.158Z,10.60
2018-06-01T15:11:39.627Z,9.13
2018-06-01T15:14:07.096Z,6.37
2018-06-01T15:16:34.531Z,7.20
2018-06-01T15:19:02.039Z,11.00
2018-06-01T15:21:29.499Z,9.60
2018-06-01T15:23:56.996Z,9.57
2018-06-01T15:26:24.463Z,5.63
2018-06-01T15:28:51.937Z,8.37
2018-06-01T15:31:19.424Z,5.53
2018-06-01T15:33:47.685Z,7.97
2018-06-01T15:36:15.157Z,6.87
2018-06-01T15:38:42.612Z,6.93
2018-06-01T15:41:10.118Z,10.33
2018-06-01T15:43:37.570Z,6.03
2018-06-01T15:46:05.039Z,7.47
2018-06-01T15:48:32.509Z,6.67
2018-06-01T15:51:00.769Z,7.90
2018-06-01T15:53:28.212Z,6.17
2018-06-01T15:55:55.690Z,6.13
2018-06-01T15:58:23.218Z,7.23
2018-06-01T16:00:51.638Z,8.23
2018-06-01T16:03:19.288Z,8.33
2018-06-01T16:05:46.867Z,4.73
2018-06-01T16:08:14.342Z,4.20
2018-06-01T16:10:41.921Z,4.70
2018-06-01T16:13:09.516Z,4.00
2018-06-01T16:15:36.993Z,4.60
2018-06-01T16:18:04.486Z,4.57
2018-06-01T16:20:31.941Z,3.60
2018-06-01T16:22:59.384Z,3.57
2018-06-01T16:25:26.917Z,3.73
2018-06-01T16:27:54.357Z,3.37
2018-06-01T16:30:21.866Z,3.90
2018-06-01T16:32:49.321Z,4.13
2018-06-01T16:35:16.793Z,3.93
2018-06-01T16:37:45.027Z,3.60
2018-06-01T16:40:12.509Z,3.33
2018-06-01T16:42:39.989Z,3.47
2018-06-01T16:45:08.233Z,3.17
2018-06-01T16:47:35.757Z,3.37
2018-06-01T16:50:03.224Z,3.40
2018-06-01T16:52:30.682Z,3.50
2018-06-01T16:54:58.179Z,3.10
2018-06-01T16:57:25.653Z,3.63
2018-06-01T16:59:53.920Z,3.57
2018-06-01T17:02:21.389Z,3.80
2018-06-01T17:04:49.637Z,3.17
2018-06-01T17:07:17.084Z,3.57
2018-06-01T17:09:44.562Z,6.77
2018-06-01T17:12:12.009Z,3.50
2018-06-01T17:14:39.518Z,4.23
2018-06-01T17:17:07.020Z,3.67
2018-06-01T17:19:34.477Z,3.63
2018-06-01T17:22:02.146Z,3.53
2018-06-01T17:24:29.736Z,3.63
2018-06-01T17:26:57.220Z,3.13
2018-06-01T17:29:24.665Z,2.97
2018-06-01T17:31:52.149Z,4.87
2018-06-01T17:34:19.680Z,3.00
2018-06-01T17:36:47.186Z,3.53
2018-06-01T17:39:14.654Z,4.57
2018-06-01T17:41:42.196Z,3.20
2018-06-01T17:44:09.751Z,3.40
2018-06-01T17:46:37.229Z,3.30
2018-06-01T17:49:04.730Z,3.77
2018-06-01T17:51:32.956Z,3.90
2018-06-01T17:54:00.535Z,4.00
2018-06-01T17:56:28.036Z,4.00
2018-06-01T17:58:55.693Z,3.47
2018-06-01T18:01:23.165Z,7.00
2018-06-01T18:03:50.634Z,3.97
2018-06-01T18:06:18.144Z,3.87
2018-06-01T18:08:45.694Z,3.70
2018-06-01T18:11:13.173Z,3.20
2018-06-01T18:13:41.433Z,2.00
2018-06-01T18:16:08.900Z,2.33
2018-06-01T18:18:36.401Z,5.73
2018-06-01T18:21:03.846Z,1.80
2018-06-01T18:23:31.449Z,2.87
2018-06-01T18:25:59.135Z,1.80
2018-06-01T18:28:26.675Z,2.10
2018-06-01T18:30:54.140Z,2.63
2018-06-01T18:33:22.003Z,2.80
2018-06-01T18:35:50.711Z,2.10
2018-06-01T18:38:19.038Z,5.00
2018-06-01T18:40:47.352Z,2.10
2018-06-01T18:43:14.815Z,2.23
2018-06-01T18:45:42.435Z,5.47
2018-06-01T18:48:10.372Z,3.37
2018-06-01T18:50:37.906Z,2.00
2018-06-01T18:53:05.395Z,2.47
2018-06-01T18:55:33.019Z,3.20
2018-06-01T18:58:00.977Z,3.33
2018-06-01T19:00:29.472Z,2.17
2018-06-01T19:02:56.980Z,2.20
2018-06-01T19:05:24.532Z,4.53
2018-06-01T19:07:52.337Z,2.80
2018-06-01T19:10:20.077Z,2.73
2018-06-01T19:12:47.592Z,2.87
2018-06-01T19:15:15.870Z,2.97
2018-06-01T19:17:43.408Z,3.03
2018-06-01T19:20:10.916Z,2.80
2018-06-01T19:22:38.443Z,2.90
2018-06-01T19:25:06.692Z,2.70
2018-06-01T19:27:34.173Z,2.70
2018-06-01T19:30:02.527Z,3.07
2018-06-01T19:32:29.986Z,4.87
2018-06-01T19:34:57.456Z,3.00
2018-06-01T19:37:24.972Z,2.90
2018-06-01T19:39:52.427Z,3.60
2018-06-01T19:42:19.960Z,3.43
2018-06-01T19:44:48.218Z,3.10
2018-06-01T19:47:16.473Z,4.53
2018-06-01T19:49:43.994Z,5.60
2018-06-01T19:52:11.500Z,2.93
2018-06-01T19:54:39.042Z,3.00
2018-06-01T19:57:06.529Z,3.07
2018-06-01T19:59:34.800Z,3.30
2018-06-01T20:02:02.253Z,3.13
2018-06-01T20:04:29.776Z,3.17
2018-06-01T20:06:57.289Z,3.30
2018-06-01T20:09:25.574Z,4.63
2018-06-01T20:11:53.052Z,2.70
2018-06-01T20:14:20.510Z,3.13
2018-06-01T20:16:48.009Z,3.30
2018-06-01T20:19:15.490Z,3.23
2018-06-01T20:21:43.723Z,3.20
2018-06-01T20:24:11.207Z,5.53
2018-06-01T20:26:38.674Z,3.13
2018-06-01T20:29:06.147Z,3.57
2018-06-01T20:31:33.613Z,4.30
2018-06-01T20:34:01.175Z,4.20
2018-06-01T20:36:28.655Z,3.60
2018-06-01T20:38:56.163Z,3.60
2018-06-01T20:41:23.608Z,3.97
2018-06-01T20:43:51.084Z,3.53
2018-06-01T20:46:19.329Z,3.63
2018-06-01T20:48:46.818Z,3.60
2018-06-01T20:51:15.040Z,5.93
2018-06-01T20:53:42.565Z,3.70
2018-06-01T20:56:10.078Z,3.33
2018-06-01T20:58:37.553Z,3.10
2018-06-01T21:01:05.031Z,3.47
2018-06-01T21:03:33.253Z,5.57
2018-06-01T21:06:00.744Z,4.40
2018-06-01T21:08:28.210Z,3.63
2018-06-01T21:10:56.445Z,3.53
2018-06-01T21:13:23.912Z,3.50
2018-06-01T21:15:51.402Z,3.43
2018-06-01T21:18:19.623Z,3.53
2018-06-01T21:20:47.126Z,4.00
2018-06-01T21:23:14.602Z,5.03
2018-06-01T21:25:42.819Z,5.60
2018-06-01T21:28:10.297Z,7.53
2018-06-01T21:30:37.753Z,5.50
2018-06-01T21:33:05.217Z,6.93
2018-06-01T21:35:32.719Z,9.50
2018-06-01T21:38:00.168Z,5.57
2018-06-01T21:40:28.445Z,11.10
2018-06-01T21:42:56.660Z,5.10
2018-06-01T21:45:24.127Z,5.53
2018-06-01T21:47:51.582Z,4.83
2018-06-01T21:50:19.062Z,5.13
2018-06-01T21:52:46.534Z,8.80
2018-06-01T21:55:13.981Z,8.43
2018-06-01T21:57:41.481Z,6.10
2018-06-01T22:00:08.974Z,7.23
2018-06-01T22:02:36.475Z,4.80
2018-06-01T22:05:04.713Z,6.83
2018-06-01T22:07:32.169Z,7.63
2018-06-01T22:09:59.644Z,5.63
2018-06-01T22:12:27.105Z,5.70
2018-06-01T22:14:54.561Z,7.40
2018-06-01T22:17:22.054Z,6.00
2018-06-01T22:19:49.553Z,7.20
2018-06-01T22:22:17.005Z,5.63
2018-06-01T22:24:44.489Z,8.33
2018-06-01T22:27:11.988Z,6.73
2018-06-01T22:29:39.437Z,6.90
2018-06-01T22:32:06.918Z,6.23
2018-06-01T22:34:34.425Z,7.47
2018-06-01T22:37:01.868Z,7.00
2018-06-01T22:39:29.418Z,9.00
2018-06-01T22:41:56.898Z,6.00
2018-06-01T22:44:24.423Z,10.70
2018-06-01T22:46:51.912Z,10.87
2018-06-01T22:49:19.392Z,5.43
2018-06-01T22:51:47.650Z,6.13
2018-06-01T22:54:15.126Z,4.70
2018-06-01T22:56:43.354Z,10.03
2018-06-01T22:59:10.875Z,5.17
2018-06-01T23:01:39.097Z,5.23
2018-06-01T23:04:06.606Z,4.90
2018-06-01T23:06:34.090Z,5.93
2018-06-01T23:09:01.561Z,10.13
2018-06-01T23:11:29.077Z,10.13
2018-06-01T23:13:56.584Z,8.63
2018-06-01T23:16:24.065Z,5.97
2018-06-01T23:18:51.601Z,9.03
2018-06-01T23:21:19.065Z,5.90
2018-06-01T23:23:46.592Z,10.90
2018-06-01T23:26:14.096Z,9.97
2018-06-01T23:28:41.573Z,5.40
2018-06-01T23:31:09.813Z,7.87
2018-06-01T23:33:37.268Z,5.07
2018-06-01T23:36:04.790Z,8.50
2018-06-01T23:38:32.312Z,10.13
2018-06-01T23:40:59.830Z,9.20
2018-06-01T23:43:27.385Z,5.00
2018-06-01T23:45:54.906Z,8.27
2018-06-01T23:48:23.212Z,6.17
2018-06-01T23:50:51.481Z,7.23
2018-06-01T23:53:18.955Z,6.27
2018-06-01T23:55:46.489Z,6.90
2018-06-01T23:58:14.004Z,7.03
